createdAt,value
2022-11-19T00:01:14.941Z,92.21
2022-11-19T00:03:42.631Z,91.69
2022-11-19T00:06:13.006Z,91.63
2022-11-19T00:08:40.400Z,91.19
2022-11-19T00:11:15.655Z,91.04
2022-11-19T00:13:43.553Z,90.87
2022-11-19T00:16:14.726Z,91.05
2022-11-19T00:18:41.929Z,90.48
2022-11-19T00:21:13.492Z,90.89
2022-11-19T00:23:41.041Z,90.96
2022-11-19T00:26:12.720Z,89.74
2022-11-19T00:28:40.514Z,90.40
2022-11-19T00:31:09.556Z,90.36
2022-11-19T00:33:37.587Z,90.01
2022-11-19T00:36:05.730Z,90.33
2022-11-19T00:38:32.703Z,90.17
2022-11-19T00:40:59.528Z,90.45
2022-11-19T00:43:45.481Z,90.20
2022-11-19T00:46:15.766Z,90.93
2022-11-19T00:48:42.783Z,91.22
2022-11-19T00:51:10.587Z,90.52
2022-11-19T00:53:37.967Z,90.49
2022-11-19T00:56:07.990Z,90.56
2022-11-19T00:58:35.037Z,90.02
2022-11-19T01:01:01.999Z,89.58
2022-11-19T01:03:29.276Z,88.78
2022-11-19T01:05:56.103Z,88.15
2022-11-19T01:08:23.383Z,88.41
2022-11-19T01:10:50.256Z,88.01
2022-11-19T01:13:35.339Z,88.03
2022-11-19T01:16:10.932Z,87.65
2022-11-19T01:18:39.441Z,87.68
2022-11-19T01:21:07.175Z,88.57
2022-11-19T01:23:34.483Z,87.99
2022-11-19T01:26:01.371Z,89.29
2022-11-19T01:28:28.629Z,87.60
2022-11-19T01:30:55.718Z,89.01
2022-11-19T01:33:22.843Z,88.11
2022-11-19T01:36:04.498Z,87.77
2022-11-19T01:38:31.759Z,87.64
2022-11-19T01:41:00.128Z,87.01
2022-11-19T01:43:48.610Z,87.09
2022-11-19T01:46:17.829Z,87.93
2022-11-19T01:48:50.001Z,87.56
2022-11-19T01:51:20.342Z,88.10
2022-11-19T01:53:48.967Z,87.41
2022-11-19T01:56:18.590Z,87.81
2022-11-19T01:58:48.116Z,87.29
2022-11-19T02:01:16.358Z,86.79
2022-11-19T02:03:43.775Z,87.30
2022-11-19T02:06:11.850Z,87.00
2022-11-19T02:08:43.271Z,87.38
2022-11-19T02:11:13.045Z,87.43
2022-11-19T02:14:23.051Z,87.46
2022-11-19T02:17:01.904Z,86.54
2022-11-19T02:19:37.526Z,87.40
2022-11-19T02:22:26.512Z,87.07
2022-11-19T02:24:54.525Z,87.03
2022-11-19T02:27:51.712Z,87.27
2022-11-19T02:30:19.690Z,87.09
2022-11-19T02:32:58.949Z,87.51
2022-11-19T02:35:32.167Z,86.88
2022-11-19T02:38:06.262Z,87.25
2022-11-19T02:40:39.087Z,86.39
2022-11-19T02:43:11.797Z,87.34
2022-11-19T02:45:43.550Z,86.60
2022-11-19T02:48:23.263Z,87.58
2022-11-19T02:50:53.185Z,88.25
2022-11-19T02:53:20.055Z,88.55
2022-11-19T02:56:07.004Z,89.10
2022-11-19T02:58:56.808Z,88.62
2022-11-19T03:01:43.271Z,89.13
2022-11-19T03:04:30.064Z,89.42
2022-11-19T03:07:00.277Z,89.20
2022-11-19T03:09:27.618Z,89.29
2022-11-19T03:12:04.395Z,89.78
2022-11-19T03:14:55.730Z,90.06
2022-11-19T03:17:32.565Z,90.10
2022-11-19T03:20:15.072Z,90.80
2022-11-19T03:22:54.679Z,89.97
2022-11-19T03:25:29.176Z,88.65
2022-11-19T03:28:00.055Z,88.34
2022-11-19T03:30:27.789Z,88.95
2022-11-19T03:32:59.886Z,88.93
2022-11-19T03:35:30.572Z,89.04
2022-11-19T03:38:00.379Z,88.91
2022-11-19T03:40:28.249Z,88.18
2022-11-19T03:42:56.175Z,88.31
2022-11-19T03:45:26.335Z,88.57
2022-11-19T03:47:54.056Z,87.53
2022-11-19T03:50:23.488Z,88.00
2022-11-19T03:52:50.393Z,86.96
2022-11-19T03:55:17.327Z,86.51
2022-11-19T03:57:44.551Z,87.26
2022-11-19T04:00:11.803Z,86.25
2022-11-19T04:02:41.923Z,86.70
2022-11-19T04:05:09.442Z,86.69
2022-11-19T04:07:36.285Z,86.13
2022-11-19T04:10:03.209Z,87.58
2022-11-19T04:12:29.992Z,87.75
2022-11-19T04:14:56.811Z,88.12
2022-11-19T04:17:23.623Z,87.15
2022-11-19T04:19:50.374Z,87.06
2022-11-19T04:22:17.288Z,88.02
2022-11-19T04:24:44.065Z,87.94
2022-11-19T04:27:11.005Z,88.51
2022-11-19T04:29:37.825Z,87.09
2022-11-19T04:32:04.950Z,87.63
2022-11-19T04:34:31.706Z,87.89
2022-11-19T04:36:58.476Z,88.43
2022-11-19T04:39:25.309Z,88.24
2022-11-19T04:41:52.032Z,87.16
2022-11-19T04:44:18.777Z,86.97
2022-11-19T04:46:45.476Z,86.48
2022-11-19T04:49:12.361Z,87.44
2022-11-19T04:51:39.231Z,87.19
2022-11-19T04:54:08.721Z,86.82
2022-11-19T04:56:36.410Z,85.99
2022-11-19T04:59:04.119Z,86.31
2022-11-19T05:01:30.893Z,85.74
2022-11-19T05:03:57.665Z,86.40
2022-11-19T05:06:24.389Z,85.79
2022-11-19T05:08:51.131Z,86.89
2022-11-19T05:11:17.906Z,86.97
2022-11-19T05:13:44.704Z,87.00
2022-11-19T05:16:15.069Z,87.73
2022-11-19T05:18:43.313Z,88.03
2022-11-19T05:21:10.152Z,88.00
2022-11-19T05:23:37.043Z,87.61
2022-11-19T05:26:03.779Z,88.00
2022-11-19T05:28:38.958Z,88.63
2022-11-19T05:31:07.195Z,88.95
2022-11-19T05:33:34.664Z,89.59
2022-11-19T05:36:02.442Z,89.94
2022-11-19T05:38:29.386Z,88.79
2022-11-19T05:40:56.287Z,89.14
2022-11-19T05:43:23.062Z,90.00
2022-11-19T05:45:49.961Z,90.10
2022-11-19T05:48:16.712Z,90.01
2022-11-19T05:50:43.938Z,90.27
2022-11-19T05:53:10.913Z,90.52
2022-11-19T05:55:37.732Z,90.68
2022-11-19T05:58:04.449Z,89.99
2022-11-19T06:00:31.249Z,90.36
2022-11-19T06:02:58.008Z,92.44
2022-11-19T06:05:24.889Z,91.84
2022-11-19T06:07:51.644Z,91.51
2022-11-19T06:10:18.497Z,92.10
2022-11-19T06:12:46.065Z,91.98
2022-11-19T06:15:14.228Z,91.93
2022-11-19T06:17:41.094Z,92.07
2022-11-19T06:20:11.341Z,91.89
2022-11-19T06:22:38.863Z,91.40
2022-11-19T06:25:06.427Z,91.99
2022-11-19T06:27:33.469Z,91.90
2022-11-19T06:30:00.492Z,92.45
2022-11-19T06:32:27.663Z,92.33
2022-11-19T06:34:54.460Z,91.88
2022-11-19T06:37:21.332Z,91.97
2022-11-19T06:39:48.150Z,91.76
2022-11-19T06:42:33.372Z,91.59
2022-11-19T06:45:00.241Z,89.95
2022-11-19T06:47:27.009Z,89.76
2022-11-19T06:49:53.977Z,90.53
2022-11-19T06:52:20.761Z,90.18
2022-11-19T06:54:47.608Z,89.55
2022-11-19T06:57:14.503Z,90.60
2022-11-19T06:59:41.315Z,89.84
2022-11-19T07:02:09.752Z,90.47
2022-11-19T07:04:36.608Z,90.09
2022-11-19T07:07:03.843Z,89.26
2022-11-19T07:09:30.699Z,89.97
2022-11-19T07:11:57.803Z,89.80
2022-11-19T07:14:24.542Z,90.09
2022-11-19T07:16:51.706Z,90.62
2022-11-19T07:19:19.706Z,89.97
2022-11-19T07:21:46.689Z,90.93
2022-11-19T07:24:16.831Z,90.37
2022-11-19T07:26:44.262Z,90.09
2022-11-19T07:29:13.233Z,89.14
2022-11-19T07:31:40.032Z,90.24
2022-11-19T07:34:07.854Z,91.37
2022-11-19T07:36:34.963Z,90.21
2022-11-19T07:39:01.818Z,90.48
2022-11-19T07:41:47.161Z,90.98
2022-11-19T07:44:13.963Z,90.41
2022-11-19T07:46:41.269Z,90.85
2022-11-19T07:49:08.109Z,90.78
2022-11-19T07:51:34.851Z,91.30
2022-11-19T07:54:01.729Z,91.88
2022-11-19T07:56:28.613Z,91.19
2022-11-19T07:58:56.430Z,91.86
2022-11-19T08:01:24.295Z,90.82
2022-11-19T08:03:56.226Z,90.92
2022-11-19T08:06:25.683Z,90.42
2022-11-19T08:08:52.779Z,89.64
2022-11-19T08:11:19.832Z,90.13
2022-11-19T08:13:46.553Z,90.61
2022-11-19T08:16:38.847Z,89.88
2022-11-19T08:19:07.813Z,90.09
2022-11-19T08:21:34.690Z,91.24
2022-11-19T08:24:01.794Z,89.51
2022-11-19T08:26:28.856Z,89.65
2022-11-19T08:28:55.601Z,89.87
2022-11-19T08:31:22.494Z,90.13
2022-11-19T08:33:49.302Z,89.69
2022-11-19T08:36:16.080Z,88.66
2022-11-19T08:38:42.844Z,89.68
2022-11-19T08:41:28.059Z,88.34
2022-11-19T08:43:54.881Z,88.68
2022-11-19T08:46:21.731Z,89.88
2022-11-19T08:48:48.563Z,90.42
2022-11-19T08:51:16.608Z,90.33
2022-11-19T08:53:43.465Z,91.22
2022-11-19T08:56:15.271Z,91.82
2022-11-19T08:58:45.351Z,91.22
2022-11-19T09:01:13.445Z,91.05
2022-11-19T09:03:40.318Z,91.41
2022-11-19T09:06:07.540Z,91.33
2022-11-19T09:08:35.146Z,91.07
2022-11-19T09:11:13.806Z,91.67
2022-11-19T09:13:40.878Z,92.29
2022-11-19T09:16:08.546Z,91.84
2022-11-19T09:18:39.099Z,91.24
2022-11-19T09:21:07.478Z,91.27
2022-11-19T09:23:34.416Z,91.41
2022-11-19T09:26:03.977Z,91.10
2022-11-19T09:28:31.588Z,91.00
2022-11-19T09:31:04.779Z,90.28
2022-11-19T09:33:33.707Z,90.97
2022-11-19T09:36:00.508Z,91.03
2022-11-19T09:38:27.633Z,90.72
2022-11-19T09:40:55.846Z,91.21
2022-11-19T09:43:30.731Z,91.33
2022-11-19T09:46:06.715Z,90.92
2022-11-19T09:48:37.824Z,91.88
2022-11-19T09:51:14.744Z,91.27
2022-11-19T09:53:58.437Z,91.96
2022-11-19T09:56:30.152Z,91.74
2022-11-19T09:58:57.736Z,91.86
2022-11-19T10:01:25.748Z,92.33
2022-11-19T10:03:54.619Z,93.09
2022-11-19T10:06:39.338Z,92.28
2022-11-19T10:09:28.291Z,93.17
2022-11-19T10:12:04.348Z,93.21
2022-11-19T10:14:54.339Z,92.97
2022-11-19T10:17:48.709Z,92.96
2022-11-19T10:20:31.692Z,92.92
2022-11-19T10:23:04.460Z,92.77
2022-11-19T10:25:39.866Z,93.05
2022-11-19T10:28:18.765Z,92.06
2022-11-19T10:31:07.320Z,92.72
2022-11-19T10:33:38.009Z,92.58
2022-11-19T10:36:18.462Z,91.60
2022-11-19T10:39:03.957Z,91.95
2022-11-19T10:41:48.334Z,92.52
2022-11-19T10:44:42.382Z,92.37
2022-11-19T10:47:15.306Z,92.30
2022-11-19T10:49:42.836Z,92.15
2022-11-19T10:52:29.540Z,92.08
2022-11-19T10:55:01.035Z,92.51
2022-11-19T10:57:30.488Z,92.60
2022-11-19T10:59:57.586Z,92.47
2022-11-19T11:02:49.315Z,92.73
2022-11-19T11:05:18.028Z,92.42
2022-11-19T11:07:52.750Z,91.83
2022-11-19T11:10:42.765Z,91.81
2022-11-19T11:13:47.227Z,92.29
2022-11-19T11:16:17.593Z,91.70
2022-11-19T11:18:45.795Z,91.69
2022-11-19T11:21:36.530Z,91.15
2022-11-19T11:24:04.675Z,90.77
2022-11-19T11:26:33.917Z,89.91
2022-11-19T11:29:14.826Z,90.62
2022-11-19T11:31:46.904Z,90.33
2022-11-19T11:34:38.596Z,89.42
2022-11-19T11:37:08.800Z,89.77
2022-11-19T11:39:38.099Z,88.11
2022-11-19T11:42:06.971Z,87.86
2022-11-19T11:44:36.118Z,87.86
2022-11-19T11:47:05.215Z,87.39
2022-11-19T11:49:35.762Z,87.88
2022-11-19T11:52:13.527Z,88.16
2022-11-19T11:54:59.648Z,87.83
2022-11-19T11:57:35.049Z,88.59
2022-11-19T12:00:04.852Z,88.43
2022-11-19T12:02:33.834Z,87.96
2022-11-19T12:05:06.379Z,87.32
2022-11-19T12:07:36.007Z,87.53
2022-11-19T12:10:14.112Z,87.27
2022-11-19T12:13:15.924Z,86.44
2022-11-19T12:15:59.133Z,86.68
2022-11-19T12:18:44.996Z,86.10
2022-11-19T12:21:20.440Z,87.43
2022-11-19T12:24:02.731Z,86.03
2022-11-19T12:26:51.177Z,85.65
2022-11-19T12:29:18.099Z,84.29
2022-11-19T12:32:07.488Z,84.78
2022-11-19T12:35:00.441Z,84.80
2022-11-19T12:37:54.829Z,84.79
2022-11-19T12:40:45.541Z,83.83
2022-11-19T12:43:42.698Z,83.44
2022-11-19T12:46:15.277Z,82.91
2022-11-19T12:49:20.851Z,83.85
2022-11-19T12:52:15.612Z,82.60
2022-11-19T12:54:44.535Z,83.86
2022-11-19T12:57:35.490Z,83.04
2022-11-19T13:00:19.331Z,83.80
2022-11-19T13:03:17.241Z,83.15
2022-11-19T13:05:53.017Z,83.41
2022-11-19T13:08:41.356Z,83.71
2022-11-19T13:11:45.479Z,83.46
2022-11-19T13:14:38.631Z,83.50
2022-11-19T13:17:07.422Z,83.52
2022-11-19T13:19:36.943Z,83.45
2022-11-19T13:22:13.310Z,83.21
2022-11-19T13:24:44.221Z,84.34
2022-11-19T13:27:18.824Z,85.09
2022-11-19T13:30:07.304Z,83.34
2022-11-19T13:33:01.178Z,84.63
2022-11-19T13:35:58.403Z,84.25
2022-11-19T13:38:49.024Z,84.55
2022-11-19T13:41:23.502Z,83.47
2022-11-19T13:44:08.909Z,83.49
2022-11-19T13:46:44.841Z,84.04
2022-11-19T13:49:24.239Z,83.09
2022-11-19T13:51:55.579Z,83.08
2022-11-19T13:54:29.775Z,82.26
2022-11-19T13:56:57.407Z,82.94
2022-11-19T13:59:25.534Z,82.93
2022-11-19T14:02:18.657Z,82.19
2022-11-19T14:05:15.669Z,82.62
2022-11-19T14:08:00.435Z,82.23
2022-11-19T14:10:27.286Z,82.62
2022-11-19T14:13:06.881Z,81.96
2022-11-19T14:15:52.336Z,81.26
2022-11-19T14:18:40.499Z,83.05
2022-11-19T14:21:44.161Z,81.99
2022-11-19T14:24:49.960Z,82.78
2022-11-19T14:27:29.258Z,82.04
2022-11-19T14:30:00.615Z,82.41
2022-11-19T14:32:48.698Z,81.83
2022-11-19T14:35:27.559Z,81.64
2022-11-19T14:37:57.581Z,80.67
2022-11-19T14:40:29.021Z,81.57
2022-11-19T14:43:20.455Z,80.39
2022-11-19T14:46:03.142Z,81.90
2022-11-19T14:48:36.126Z,81.66
2022-11-19T14:51:30.713Z,81.19
2022-11-19T14:54:15.809Z,80.94
2022-11-19T14:56:45.793Z,81.77
2022-11-19T14:59:15.661Z,82.38
2022-11-19T15:02:02.070Z,81.80
2022-11-19T15:04:44.697Z,82.54
2022-11-19T15:07:14.406Z,82.67
2022-11-19T15:10:03.219Z,81.67
2022-11-19T15:12:45.608Z,82.50
2022-11-19T15:15:22.503Z,83.09
2022-11-19T15:18:15.476Z,82.93
2022-11-19T15:21:16.579Z,82.88
2022-11-19T15:24:20.973Z,83.33
2022-11-19T15:27:11.394Z,83.75
2022-11-19T15:29:50.313Z,84.62
2022-11-19T15:32:31.113Z,84.40
2022-11-19T15:35:16.173Z,83.61
2022-11-19T15:37:49.784Z,84.02
2022-11-19T15:40:20.125Z,83.75
2022-11-19T15:42:54.680Z,82.36
2022-11-19T15:45:23.692Z,82.73
2022-11-19T15:48:04.134Z,82.25
2022-11-19T15:50:31.835Z,81.25
2022-11-19T15:53:01.224Z,82.89
2022-11-19T15:55:31.191Z,81.13
2022-11-19T15:58:04.048Z,81.45
2022-11-19T16:00:31.103Z,81.08
2022-11-19T16:02:58.763Z,80.89
2022-11-19T16:05:30.302Z,80.41
2022-11-19T16:08:00.132Z,80.88
2022-11-19T16:10:32.249Z,80.61
2022-11-19T16:13:20.174Z,81.42
2022-11-19T16:16:12.868Z,81.78
2022-11-19T16:18:47.822Z,82.93
2022-11-19T16:21:20.175Z,83.78
2022-11-19T16:24:07.680Z,84.24
2022-11-19T16:26:43.782Z,84.29
2022-11-19T16:29:20.183Z,84.38
2022-11-19T16:31:50.086Z,85.63
2022-11-19T16:34:25.772Z,86.16
2022-11-19T16:36:53.338Z,86.62
2022-11-19T16:39:25.650Z,86.22
2022-11-19T16:42:16.152Z,86.70
2022-11-19T16:44:48.728Z,86.74
2022-11-19T16:47:22.245Z,86.91
2022-11-19T16:49:49.101Z,87.70
2022-11-19T16:52:39.771Z,87.31
2022-11-19T16:55:26.537Z,86.88
2022-11-19T16:58:20.147Z,86.54
2022-11-19T17:00:50.862Z,86.19
2022-11-19T17:03:24.035Z,86.19
2022-11-19T17:05:52.519Z,84.89
2022-11-19T17:08:26.050Z,83.53
2022-11-19T17:11:43.601Z,84.03
2022-11-19T17:14:28.262Z,83.91
2022-11-19T17:16:55.095Z,83.72
2022-11-19T17:19:34.907Z,84.36
2022-11-19T17:22:02.164Z,83.98
2022-11-19T17:24:41.674Z,83.52
2022-11-19T17:27:24.549Z,84.08
2022-11-19T17:29:55.921Z,83.27
2022-11-19T17:32:22.814Z,83.51
2022-11-19T17:34:55.195Z,83.28
2022-11-19T17:37:22.113Z,83.74
2022-11-19T17:39:48.986Z,82.71
2022-11-19T17:42:34.407Z,82.55
2022-11-19T17:45:04.722Z,82.50
2022-11-19T17:47:34.536Z,83.41
2022-11-19T17:50:01.372Z,83.46
2022-11-19T17:52:30.397Z,82.22
2022-11-19T17:54:59.259Z,82.63
2022-11-19T17:57:26.171Z,81.87
2022-11-19T17:59:53.174Z,82.46
2022-11-19T18:02:21.166Z,81.83
2022-11-19T18:04:48.822Z,83.15
2022-11-19T18:07:15.817Z,84.04
2022-11-19T18:09:42.846Z,83.55
2022-11-19T18:12:19.215Z,83.12
2022-11-19T18:14:46.815Z,83.12
2022-11-19T18:17:14.716Z,82.89
2022-11-19T18:19:41.706Z,83.62
2022-11-19T18:22:17.012Z,83.12
2022-11-19T18:24:44.350Z,83.52
2022-11-19T18:27:11.135Z,83.51
2022-11-19T18:29:38.184Z,83.54
2022-11-19T18:32:05.245Z,84.32
2022-11-19T18:34:32.522Z,84.82
2022-11-19T18:36:59.409Z,84.70
2022-11-19T18:39:26.416Z,85.03
2022-11-19T18:41:53.284Z,85.00
2022-11-19T18:44:35.444Z,84.39
2022-11-19T18:47:05.349Z,84.96
2022-11-19T18:49:34.531Z,85.45
2022-11-19T18:52:02.550Z,85.77
2022-11-19T18:54:29.425Z,85.05
2022-11-19T18:56:56.232Z,85.41
2022-11-19T18:59:23.618Z,85.49
2022-11-19T19:01:52.189Z,85.07
2022-11-19T19:04:19.273Z,85.24
2022-11-19T19:06:46.313Z,85.21
2022-11-19T19:09:19.639Z,84.90
2022-11-19T19:12:12.287Z,85.01
2022-11-19T19:14:40.237Z,86.09
2022-11-19T19:17:07.068Z,85.72
2022-11-19T19:19:34.027Z,85.99
2022-11-19T19:22:01.049Z,86.69
2022-11-19T19:24:28.126Z,85.82
2022-11-19T19:26:54.913Z,86.20
2022-11-19T19:29:22.303Z,86.52
2022-11-19T19:31:49.245Z,86.89
2022-11-19T19:34:16.854Z,86.43
2022-11-19T19:36:47.627Z,86.97
2022-11-19T19:39:17.313Z,86.34
2022-11-19T19:41:44.083Z,86.47
2022-11-19T19:44:11.121Z,86.19
2022-11-19T19:46:38.099Z,85.95
2022-11-19T19:49:05.040Z,86.10
2022-11-19T19:51:32.843Z,86.49
2022-11-19T19:54:00.171Z,86.88
2022-11-19T19:56:32.288Z,87.19
2022-11-19T19:59:00.252Z,86.86
2022-11-19T20:01:29.542Z,87.76
2022-11-19T20:04:06.970Z,87.22
2022-11-19T20:06:35.412Z,86.88
2022-11-19T20:09:08.174Z,86.69
2022-11-19T20:11:48.631Z,86.49
2022-11-19T20:14:16.381Z,86.41
2022-11-19T20:16:43.270Z,86.01
2022-11-19T20:19:14.132Z,87.03
2022-11-19T20:21:41.209Z,87.02
2022-11-19T20:24:12.235Z,87.66
2022-11-19T20:26:40.320Z,87.05
2022-11-19T20:29:07.585Z,87.20
2022-11-19T20:31:35.074Z,86.83
2022-11-19T20:34:04.189Z,86.58
2022-11-19T20:36:33.434Z,86.99
2022-11-19T20:39:00.482Z,87.70
2022-11-19T20:41:46.993Z,87.34
2022-11-19T20:44:22.414Z,87.72
2022-11-19T20:46:52.109Z,87.28
2022-11-19T20:49:21.416Z,87.72
2022-11-19T20:51:48.884Z,87.50
2022-11-19T20:54:16.541Z,86.90
2022-11-19T20:56:44.165Z,87.78
2022-11-19T20:59:12.294Z,87.96
2022-11-19T21:01:39.501Z,88.13
2022-11-19T21:04:07.049Z,86.92
2022-11-19T21:06:33.854Z,87.46
2022-11-19T21:09:00.769Z,87.17
2022-11-19T21:11:27.710Z,87.55
2022-11-19T21:13:54.570Z,87.56
2022-11-19T21:16:23.743Z,88.02
2022-11-19T21:18:51.015Z,87.31
2022-11-19T21:21:19.617Z,87.86
2022-11-19T21:23:46.799Z,88.40
2022-11-19T21:26:19.919Z,87.60
2022-11-19T21:28:49.745Z,87.88
2022-11-19T21:31:18.154Z,88.43
2022-11-19T21:33:45.922Z,88.79
2022-11-19T21:36:13.478Z,88.68
2022-11-19T21:38:40.612Z,88.94
2022-11-19T21:41:07.662Z,90.13
2022-11-19T21:43:35.362Z,89.76
2022-11-19T21:46:02.246Z,90.19
2022-11-19T21:48:28.987Z,90.32
2022-11-19T21:50:55.773Z,90.52
2022-11-19T21:53:22.545Z,90.31
2022-11-19T21:55:49.500Z,90.44
2022-11-19T21:58:16.838Z,90.60
2022-11-19T22:00:46.813Z,89.82
2022-11-19T22:03:14.498Z,90.28
2022-11-19T22:05:41.836Z,91.05
2022-11-19T22:08:08.682Z,90.74
2022-11-19T22:10:35.460Z,89.63
2022-11-19T22:13:02.427Z,89.09
2022-11-19T22:15:29.237Z,89.82
2022-11-19T22:17:56.437Z,89.52
2022-11-19T22:20:25.310Z,90.10
2022-11-19T22:22:52.126Z,89.78
2022-11-19T22:25:18.945Z,89.18
2022-11-19T22:27:45.771Z,89.49
2022-11-19T22:30:12.901Z,89.22
2022-11-19T22:32:39.711Z,89.21
2022-11-19T22:35:07.084Z,88.36
2022-11-19T22:37:33.907Z,87.86
2022-11-19T22:40:00.688Z,88.17
2022-11-19T22:42:27.514Z,87.26
2022-11-19T22:44:54.482Z,88.01
2022-11-19T22:47:21.356Z,87.79
2022-11-19T22:49:48.147Z,87.25
2022-11-19T22:52:16.191Z,87.95
2022-11-19T22:54:43.851Z,87.90
2022-11-19T22:57:11.446Z,88.40
2022-11-19T22:59:38.260Z,87.98
2022-11-19T23:02:05.096Z,87.19
2022-11-19T23:04:31.941Z,87.60
2022-11-19T23:06:58.797Z,87.76
2022-11-19T23:09:25.767Z,87.74
2022-11-19T23:12:11.075Z,87.09
2022-11-19T23:14:38.082Z,87.17
2022-11-19T23:17:04.841Z,87.89
2022-11-19T23:19:31.663Z,86.89
2022-11-19T23:21:58.648Z,87.19
2022-11-19T23:24:25.580Z,87.13
2022-11-19T23:26:52.468Z,87.88
2022-11-19T23:29:20.093Z,86.91
2022-11-19T23:31:47.133Z,86.46
2022-11-19T23:34:14.027Z,87.03
2022-11-19T23:36:41.545Z,86.96
2022-11-19T23:39:13.893Z,86.87
2022-11-19T23:41:40.753Z,86.59
2022-11-19T23:44:07.788Z,86.20
2022-11-19T23:46:36.063Z,86.38
2022-11-19T23:49:03.575Z,85.70
2022-11-19T23:51:35.768Z,85.89
2022-11-19T23:54:03.486Z,87.08
2022-11-19T23:56:32.309Z,87.19
2022-11-19T23:59:00.839Z,86.00
